createdAt,value
2022-09-23T00:01:38.238Z,67.68
2022-09-23T00:04:06.312Z,67.48
2022-09-23T00:06:34.223Z,67.46
2022-09-23T00:09:02.106Z,67.58
2022-09-23T00:11:30.599Z,67.83
2022-09-23T00:14:00.682Z,67.65
2022-09-23T00:16:30.891Z,68.03
2022-09-23T00:19:00.912Z,68.25
2022-09-23T00:21:29.168Z,68.29
2022-09-23T00:23:57.312Z,68.25
2022-09-23T00:26:25.558Z,68.65
2022-09-23T00:28:53.553Z,68.58
2022-09-23T00:31:23.733Z,68.65
2022-09-23T00:33:55.495Z,68.71
2022-09-23T00:36:25.131Z,68.51
2022-09-23T00:38:53.232Z,68.87
2022-09-23T00:41:22.160Z,68.54
2022-09-23T00:43:52.220Z,68.60
2022-09-23T00:46:23.517Z,68.76
2022-09-23T00:48:59.084Z,68.36
2022-09-23T00:51:34.412Z,68.70
2022-09-23T00:54:03.671Z,69.17
2022-09-23T00:56:33.070Z,68.67
2022-09-23T00:59:02.258Z,68.93
2022-09-23T01:01:30.206Z,68.82
2022-09-23T01:03:59.080Z,68.98
2022-09-23T01:06:29.385Z,69.00
2022-09-23T01:08:57.272Z,69.00
2022-09-23T01:11:41.133Z,68.96
2022-09-23T01:14:37.867Z,68.90
2022-09-23T01:17:10.598Z,68.78
2022-09-23T01:20:06.659Z,68.94
2022-09-23T01:22:43.091Z,68.99
2022-09-23T01:25:37.276Z,68.95
2022-09-23T01:28:23.203Z,69.08
2022-09-23T01:30:58.606Z,68.99
2022-09-23T01:33:34.907Z,68.70
2022-09-23T01:36:16.135Z,68.85
2022-09-23T01:38:53.571Z,69.24
2022-09-23T01:41:37.153Z,68.66
2022-09-23T01:44:10.613Z,68.03
2022-09-23T01:46:44.882Z,67.62
2022-09-23T01:49:18.827Z,67.10
2022-09-23T01:51:50.641Z,67.09
2022-09-23T01:54:24.470Z,66.75
2022-09-23T01:56:58.744Z,66.57
2022-09-23T01:59:32.894Z,66.66
2022-09-23T02:02:08.581Z,66.33
2022-09-23T02:04:41.140Z,66.39
2022-09-23T02:07:15.116Z,66.66
2022-09-23T02:09:47.188Z,66.09
2022-09-23T02:12:20.704Z,66.16
2022-09-23T02:14:54.166Z,65.99
2022-09-23T02:17:25.964Z,65.49
2022-09-23T02:19:58.527Z,65.68
2022-09-23T02:22:30.873Z,65.77
2022-09-23T02:24:59.296Z,65.71
2022-09-23T02:27:32.905Z,65.81
2022-09-23T02:30:08.852Z,65.50
2022-09-23T02:32:48.036Z,65.82
2022-09-23T02:35:22.592Z,65.16
2022-09-23T02:37:58.692Z,65.05
2022-09-23T02:40:35.496Z,64.67
2022-09-23T02:43:08.444Z,64.53
2022-09-23T02:45:38.959Z,64.56
2022-09-23T02:48:14.684Z,64.25
2022-09-23T02:50:42.757Z,64.20
2022-09-23T02:53:10.784Z,64.18
2022-09-23T02:55:38.693Z,64.26
2022-09-23T02:58:06.670Z,63.84
2022-09-23T03:00:57.134Z,63.89
2022-09-23T03:03:41.787Z,63.90
2022-09-23T03:06:25.951Z,64.04
2022-09-23T03:08:59.269Z,63.76
2022-09-23T03:11:27.494Z,63.83
2022-09-23T03:14:07.439Z,63.47
2022-09-23T03:16:43.689Z,63.31
2022-09-23T03:19:26.332Z,63.13
2022-09-23T03:22:02.039Z,63.19
2022-09-23T03:24:32.322Z,62.87
2022-09-23T03:27:04.226Z,62.96
2022-09-23T03:29:37.303Z,62.79
2022-09-23T03:32:08.097Z,62.69
2022-09-23T03:34:39.562Z,62.82
2022-09-23T03:37:14.193Z,62.45
2022-09-23T03:39:45.344Z,62.47
2022-09-23T03:42:18.189Z,62.48
2022-09-23T03:44:47.658Z,62.46
2022-09-23T03:47:17.116Z,62.88
2022-09-23T03:49:48.617Z,63.25
2022-09-23T03:52:17.180Z,63.34
2022-09-23T03:54:45.538Z,63.32
2022-09-23T03:57:14.139Z,63.55
2022-09-23T03:59:42.467Z,63.37
2022-09-23T04:02:11.877Z,63.64
2022-09-23T04:04:41.043Z,63.77
2022-09-23T04:07:11.013Z,63.71
2022-09-23T04:09:39.265Z,63.65
2022-09-23T04:12:07.859Z,63.76
2022-09-23T04:14:35.824Z,64.04
2022-09-23T04:17:03.842Z,63.43
2022-09-23T04:19:31.907Z,63.62
2022-09-23T04:21:59.840Z,63.54
2022-09-23T04:24:29.529Z,63.44
2022-09-23T04:26:58.020Z,63.84
2022-09-23T04:29:27.247Z,63.89
2022-09-23T04:31:55.590Z,63.48
2022-09-23T04:34:23.562Z,63.77
2022-09-23T04:36:51.640Z,64.35
2022-09-23T04:39:19.792Z,63.42
2022-09-23T04:41:49.234Z,63.33
2022-09-23T04:44:17.317Z,63.42
2022-09-23T04:46:47.375Z,63.55
2022-09-23T04:49:21.015Z,64.63
2022-09-23T04:51:49.064Z,63.63
2022-09-23T04:54:16.989Z,63.65
2022-09-23T04:56:44.919Z,63.96
2022-09-23T04:59:14.333Z,63.78
2022-09-23T05:01:42.336Z,63.40
2022-09-23T05:04:13.782Z,63.82
2022-09-23T05:06:45.114Z,63.57
2022-09-23T05:09:17.249Z,63.74
2022-09-23T05:11:46.051Z,63.57
2022-09-23T05:14:15.698Z,63.66
2022-09-23T05:16:43.746Z,63.71
2022-09-23T05:19:13.436Z,63.62
2022-09-23T05:21:41.575Z,63.53
2022-09-23T05:24:09.854Z,63.33
2022-09-23T05:26:38.300Z,63.10
2022-09-23T05:29:06.348Z,63.19
2022-09-23T05:31:36.708Z,63.13
2022-09-23T05:34:06.331Z,62.86
2022-09-23T05:36:39.021Z,62.68
2022-09-23T05:39:08.565Z,62.23
2022-09-23T05:41:37.370Z,62.14
2022-09-23T05:44:05.812Z,61.65
2022-09-23T05:46:35.241Z,61.54
2022-09-23T05:49:04.329Z,61.21
2022-09-23T05:51:33.927Z,60.92
2022-09-23T05:54:03.049Z,60.70
2022-09-23T05:56:32.117Z,60.69
2022-09-23T05:59:02.033Z,60.42
2022-09-23T06:01:33.551Z,60.22
2022-09-23T06:04:05.409Z,60.04
2022-09-23T06:06:35.404Z,60.47
2022-09-23T06:09:04.246Z,59.10
2022-09-23T06:11:33.290Z,59.32
2022-09-23T06:14:04.847Z,59.49
2022-09-23T06:16:35.103Z,59.95
2022-09-23T06:19:06.988Z,59.81
2022-09-23T06:21:37.496Z,58.91
2022-09-23T06:24:06.594Z,58.54
2022-09-23T06:26:35.465Z,58.86
2022-09-23T06:29:04.292Z,58.73
2022-09-23T06:31:32.979Z,58.97
2022-09-23T06:34:12.563Z,58.69
2022-09-23T06:36:44.855Z,58.68
2022-09-23T06:39:14.807Z,58.15
2022-09-23T06:41:42.780Z,58.03
2022-09-23T06:44:14.000Z,58.34
2022-09-23T06:46:42.301Z,57.64
2022-09-23T06:49:13.375Z,57.64
2022-09-23T06:51:42.945Z,57.45
2022-09-23T06:54:11.305Z,57.28
2022-09-23T06:56:40.011Z,57.04
2022-09-23T06:59:10.679Z,57.35
2022-09-23T07:01:38.747Z,57.32
2022-09-23T07:04:07.354Z,56.90
2022-09-23T07:06:35.601Z,56.41
2022-09-23T07:09:06.193Z,55.91
2022-09-23T07:11:34.367Z,56.37
2022-09-23T07:14:02.975Z,56.44
2022-09-23T07:16:31.674Z,55.83
2022-09-23T07:18:59.896Z,55.35
2022-09-23T07:21:30.596Z,51.70
2022-09-23T07:23:58.894Z,49.81
2022-09-23T07:26:29.494Z,51.54
2022-09-23T07:29:04.674Z,51.22
2022-09-23T07:31:39.094Z,50.00
2022-09-23T07:34:08.680Z,44.62
2022-09-23T07:36:40.548Z,40.08
2022-09-23T07:39:09.617Z,41.82
2022-09-23T07:41:39.760Z,45.62
2022-09-23T07:44:08.752Z,48.15
2022-09-23T07:46:37.333Z,49.50
2022-09-23T07:49:06.764Z,49.34
2022-09-23T07:51:37.139Z,48.89
2022-09-23T07:54:08.682Z,47.08
2022-09-23T07:56:37.794Z,48.77
2022-09-23T07:59:09.366Z,49.42
2022-09-23T08:01:39.980Z,49.63
2022-09-23T08:04:11.936Z,49.42
2022-09-23T08:06:42.583Z,49.52
2022-09-23T08:09:11.422Z,48.62
2022-09-23T08:11:42.055Z,48.57
2022-09-23T08:14:13.471Z,47.94
2022-09-23T08:16:41.793Z,46.69
2022-09-23T08:19:10.212Z,43.11
2022-09-23T08:21:39.305Z,39.11
2022-09-23T08:24:08.753Z,38.63
2022-09-23T08:26:37.738Z,41.34
2022-09-23T08:29:09.738Z,41.37
2022-09-23T08:31:39.047Z,42.58
2022-09-23T08:34:07.776Z,38.83
2022-09-23T08:36:36.415Z,39.43
2022-09-23T08:39:05.225Z,40.45
2022-09-23T08:41:40.860Z,42.31
2022-09-23T08:44:14.864Z,42.36
2022-09-23T08:46:49.286Z,37.74
2022-09-23T08:49:25.496Z,35.51
2022-09-23T08:51:56.023Z,37.89
2022-09-23T08:54:32.621Z,38.18
2022-09-23T08:57:04.031Z,35.03
2022-09-23T08:59:41.691Z,30.93
2022-09-23T09:02:19.035Z,31.75
2022-09-23T09:04:50.544Z,34.72
2022-09-23T09:07:38.817Z,33.24
2022-09-23T09:10:16.417Z,30.18
2022-09-23T09:12:46.444Z,33.30
2022-09-23T09:15:16.975Z,35.00
2022-09-23T09:18:01.274Z,37.45
2022-09-23T09:20:52.923Z,39.05
2022-09-23T09:23:24.016Z,40.22
2022-09-23T09:25:54.095Z,39.59
2022-09-23T09:28:32.874Z,32.88
2022-09-23T09:31:06.857Z,28.26
2022-09-23T09:33:45.745Z,30.52
2022-09-23T09:36:30.828Z,36.14
2022-09-23T09:38:59.641Z,35.62
2022-09-23T09:41:32.625Z,36.75
2022-09-23T09:44:03.598Z,33.55
2022-09-23T09:46:54.549Z,32.15
2022-09-23T09:49:36.769Z,33.93
2022-09-23T09:52:29.530Z,31.87
2022-09-23T09:55:17.155Z,28.82
2022-09-23T09:57:50.092Z,31.02
2022-09-23T10:00:20.309Z,32.55
2022-09-23T10:02:53.008Z,33.83
2022-09-23T10:05:31.882Z,31.82
2022-09-23T10:08:23.124Z,32.68
2022-09-23T10:10:54.544Z,33.59
2022-09-23T10:13:24.116Z,35.97
2022-09-23T10:15:54.771Z,36.62
2022-09-23T10:18:30.534Z,35.83
2022-09-23T10:21:07.740Z,37.04
2022-09-23T10:23:41.322Z,37.13
2022-09-23T10:26:11.145Z,36.79
2022-09-23T10:28:47.473Z,35.82
2022-09-23T10:31:17.857Z,36.22
2022-09-23T10:33:50.166Z,36.70
2022-09-23T10:36:19.849Z,35.94
2022-09-23T10:38:52.007Z,35.53
2022-09-23T10:41:50.482Z,34.97
2022-09-23T10:44:49.055Z,34.24
2022-09-23T10:47:32.177Z,33.62
2022-09-23T10:50:15.287Z,34.84
2022-09-23T10:52:57.601Z,34.04
2022-09-23T10:55:38.256Z,33.65
2022-09-23T10:58:28.962Z,31.78
2022-09-23T11:01:14.939Z,30.68
2022-09-23T11:03:58.417Z,31.25
2022-09-23T11:06:35.439Z,31.49
2022-09-23T11:09:20.722Z,32.49
2022-09-23T11:12:03.426Z,32.58
2022-09-23T11:15:16.734Z,32.40
2022-09-23T11:18:16.652Z,32.48
2022-09-23T11:20:52.810Z,31.41
2022-09-23T11:23:48.403Z,31.13
2022-09-23T11:26:33.446Z,31.23
2022-09-23T11:29:18.259Z,31.50
2022-09-23T11:31:59.318Z,31.25
2022-09-23T11:34:55.922Z,31.27
2022-09-23T11:37:29.478Z,31.43
2022-09-23T11:40:03.216Z,31.47
2022-09-23T11:42:36.581Z,31.49
2022-09-23T11:45:18.973Z,31.71
2022-09-23T11:47:53.751Z,32.39
2022-09-23T11:50:28.078Z,31.48
2022-09-23T11:53:03.895Z,32.42
2022-09-23T11:55:49.398Z,32.20
2022-09-23T11:58:27.551Z,32.75
2022-09-23T12:01:01.655Z,32.12
2022-09-23T12:03:45.091Z,32.26
2022-09-23T12:06:19.382Z,31.84
2022-09-23T12:09:01.839Z,32.25
2022-09-23T12:11:38.769Z,32.79
2022-09-23T12:14:19.387Z,32.91
2022-09-23T12:17:14.849Z,32.96
2022-09-23T12:19:59.451Z,33.09
2022-09-23T12:22:50.338Z,33.06
2022-09-23T12:25:32.735Z,33.30
2022-09-23T12:28:05.093Z,33.12
2022-09-23T12:30:39.350Z,33.62
2022-09-23T12:33:12.340Z,33.21
2022-09-23T12:35:46.559Z,33.42
2022-09-23T12:38:19.493Z,33.03
2022-09-23T12:40:48.618Z,33.24
2022-09-23T12:43:19.838Z,33.33
2022-09-23T12:45:51.111Z,32.98
2022-09-23T12:48:59.369Z,34.06
2022-09-23T12:51:28.279Z,33.50
2022-09-23T12:54:24.292Z,33.45
2022-09-23T12:57:03.286Z,33.99
2022-09-23T12:59:32.687Z,33.79
2022-09-23T13:02:26.781Z,32.96
2022-09-23T13:05:17.787Z,33.70
2022-09-23T13:07:48.979Z,33.13
2022-09-23T13:10:23.739Z,34.15
2022-09-23T13:12:53.611Z,34.48
2022-09-23T13:15:29.909Z,33.80
2022-09-23T13:18:50.391Z,33.76
2022-09-23T13:21:40.477Z,33.75
2022-09-23T13:24:21.349Z,33.73
2022-09-23T13:26:52.391Z,34.23
2022-09-23T13:29:27.708Z,34.92
2022-09-23T13:31:58.054Z,34.50
2022-09-23T13:34:30.396Z,34.38
2022-09-23T13:36:59.431Z,34.36
2022-09-23T13:39:30.123Z,34.80
2022-09-23T13:42:03.015Z,34.98
2022-09-23T13:44:31.379Z,34.79
2022-09-23T13:47:03.206Z,35.18
2022-09-23T13:49:35.415Z,35.12
2022-09-23T13:52:04.771Z,35.66
2022-09-23T13:54:36.360Z,35.38
2022-09-23T13:57:04.975Z,35.34
2022-09-23T13:59:38.894Z,35.51
2022-09-23T14:02:11.582Z,35.20
2022-09-23T14:04:40.127Z,35.48
2022-09-23T14:07:10.562Z,35.83
2022-09-23T14:09:43.848Z,36.12
2022-09-23T14:12:12.317Z,35.89
2022-09-23T14:14:41.970Z,35.81
2022-09-23T14:17:15.682Z,35.75
2022-09-23T14:19:43.955Z,35.98
2022-09-23T14:22:24.212Z,36.57
2022-09-23T14:24:55.500Z,35.41
2022-09-23T14:27:29.073Z,35.25
2022-09-23T14:29:57.877Z,35.41
2022-09-23T14:32:28.722Z,35.88
2022-09-23T14:35:17.217Z,35.76
2022-09-23T14:38:05.810Z,36.05
2022-09-23T14:40:38.801Z,35.99
2022-09-23T14:43:12.612Z,36.54
2022-09-23T14:45:41.916Z,36.60
2022-09-23T14:48:15.428Z,36.50
2022-09-23T14:50:49.107Z,36.13
2022-09-23T14:53:36.952Z,36.90
2022-09-23T14:56:20.897Z,36.91
2022-09-23T14:58:53.262Z,36.54
2022-09-23T15:01:39.593Z,36.49
2022-09-23T15:04:14.112Z,35.78
2022-09-23T15:06:47.601Z,35.69
2022-09-23T15:09:21.698Z,35.86
2022-09-23T15:11:52.893Z,35.86
2022-09-23T15:14:37.234Z,36.00
2022-09-23T15:17:14.620Z,36.36
2022-09-23T15:19:42.661Z,36.14
2022-09-23T15:22:11.191Z,37.08
2022-09-23T15:24:44.776Z,37.33
2022-09-23T15:27:30.689Z,37.30
2022-09-23T15:30:17.275Z,37.12
2022-09-23T15:32:45.902Z,36.48
2022-09-23T15:35:16.443Z,37.11
2022-09-23T15:37:44.844Z,36.77
2022-09-23T15:40:20.677Z,37.10
2022-09-23T15:42:52.615Z,37.47
2022-09-23T15:45:22.301Z,37.56
2022-09-23T15:47:52.174Z,38.03
2022-09-23T15:50:20.777Z,38.47
2022-09-23T15:52:48.727Z,38.07
2022-09-23T15:55:18.081Z,38.57
2022-09-23T15:57:45.997Z,38.22
2022-09-23T16:00:16.926Z,38.63
2022-09-23T16:02:47.397Z,38.61
2022-09-23T16:05:23.770Z,39.14
2022-09-23T16:07:53.373Z,39.42
2022-09-23T16:10:23.358Z,39.38
2022-09-23T16:12:54.038Z,39.30
2022-09-23T16:15:25.177Z,38.67
2022-09-23T16:17:53.202Z,39.24
2022-09-23T16:20:21.169Z,40.38
2022-09-23T16:22:54.664Z,39.66
2022-09-23T16:25:25.238Z,39.74
2022-09-23T16:27:55.308Z,39.50
2022-09-23T16:30:25.385Z,39.92
2022-09-23T16:32:53.826Z,40.37
2022-09-23T16:35:22.857Z,40.88
2022-09-23T16:37:51.627Z,40.68
2022-09-23T16:40:21.678Z,40.77
2022-09-23T16:42:52.006Z,41.27
2022-09-23T16:45:22.273Z,41.45
2022-09-23T16:47:52.982Z,41.38
2022-09-23T16:50:23.607Z,41.61
2022-09-23T16:52:54.731Z,41.91
2022-09-23T16:55:25.670Z,42.09
2022-09-23T16:57:54.592Z,42.88
2022-09-23T17:00:41.135Z,43.15
2022-09-23T17:03:30.714Z,42.84
2022-09-23T17:05:59.055Z,42.64
2022-09-23T17:08:26.986Z,42.63
2022-09-23T17:11:00.151Z,42.78
2022-09-23T17:13:29.501Z,43.14
2022-09-23T17:15:57.657Z,42.62
2022-09-23T17:18:27.331Z,42.38
2022-09-23T17:21:00.534Z,43.15
2022-09-23T17:23:28.351Z,43.57
2022-09-23T17:25:56.578Z,43.54
2022-09-23T17:28:25.289Z,43.59
2022-09-23T17:30:58.568Z,43.97
2022-09-23T17:33:29.476Z,44.07
2022-09-23T17:36:00.042Z,44.49
2022-09-23T17:38:29.415Z,45.04
2022-09-23T17:41:01.310Z,49.93
2022-09-23T17:43:31.535Z,51.32
2022-09-23T17:46:05.208Z,52.03
2022-09-23T17:48:36.087Z,50.40
2022-09-23T17:51:06.550Z,50.03
2022-09-23T17:53:37.155Z,49.91
2022-09-23T17:56:06.970Z,48.65
2022-09-23T17:58:36.531Z,48.87
2022-09-23T18:01:05.861Z,49.24
2022-09-23T18:03:35.338Z,48.69
2022-09-23T18:06:08.310Z,48.72
2022-09-23T18:08:36.375Z,48.80
2022-09-23T18:11:12.830Z,48.96
2022-09-23T18:13:40.894Z,50.36
2022-09-23T18:16:08.817Z,52.76
2022-09-23T18:18:38.241Z,52.60
2022-09-23T18:21:07.546Z,52.98
2022-09-23T18:23:36.967Z,53.61
2022-09-23T18:26:05.590Z,56.06
2022-09-23T18:28:35.012Z,56.54
2022-09-23T18:31:03.063Z,59.07
2022-09-23T18:33:31.015Z,55.69
2022-09-23T18:36:02.210Z,60.55
2022-09-23T18:38:30.119Z,61.86
2022-09-23T18:41:00.306Z,58.27
2022-09-23T18:43:37.247Z,62.69
2022-09-23T18:46:09.281Z,57.35
2022-09-23T18:48:54.591Z,60.56
2022-09-23T18:51:25.557Z,59.48
2022-09-23T18:53:57.520Z,60.59
2022-09-23T18:56:27.023Z,59.77
2022-09-23T18:58:56.105Z,59.03
2022-09-23T19:01:25.136Z,60.06
2022-09-23T19:03:56.322Z,58.88
2022-09-23T19:06:26.459Z,59.55
2022-09-23T19:08:56.194Z,59.92
2022-09-23T19:11:24.954Z,59.84
2022-09-23T19:13:56.493Z,59.17
2022-09-23T19:16:25.859Z,57.14
2022-09-23T19:18:54.634Z,57.49
2022-09-23T19:21:24.978Z,57.91
2022-09-23T19:23:55.020Z,57.00
2022-09-23T19:26:25.920Z,57.14
2022-09-23T19:28:55.378Z,57.62
2022-09-23T19:31:25.571Z,56.83
2022-09-23T19:33:56.447Z,56.08
2022-09-23T19:36:28.920Z,55.91
2022-09-23T19:38:58.457Z,55.56
2022-09-23T19:41:28.065Z,56.27
2022-09-23T19:43:58.763Z,56.09
2022-09-23T19:46:27.460Z,56.03
2022-09-23T19:48:56.662Z,56.39
2022-09-23T19:51:25.545Z,56.12
2022-09-23T19:54:00.213Z,55.69
2022-09-23T19:56:29.450Z,55.77
2022-09-23T19:58:58.310Z,55.84
2022-09-23T20:01:27.857Z,55.92
2022-09-23T20:03:56.529Z,56.04
2022-09-23T20:06:25.260Z,55.65
2022-09-23T20:08:53.513Z,55.46
2022-09-23T20:11:28.417Z,55.10
2022-09-23T20:14:01.508Z,55.53
2022-09-23T20:16:34.295Z,55.67
2022-09-23T20:19:04.208Z,55.66
2022-09-23T20:21:33.732Z,55.74
2022-09-23T20:24:04.468Z,55.90
2022-09-23T20:26:51.558Z,55.65
2022-09-23T20:29:19.769Z,56.14
2022-09-23T20:31:48.336Z,55.88
2022-09-23T20:34:16.764Z,55.82
2022-09-23T20:36:45.030Z,55.60
2022-09-23T20:39:13.376Z,55.83
2022-09-23T20:41:42.774Z,56.27
2022-09-23T20:44:14.091Z,56.25
2022-09-23T20:46:48.212Z,55.90
2022-09-23T20:49:18.324Z,55.71
2022-09-23T20:51:48.767Z,55.73
2022-09-23T20:54:18.919Z,55.99
2022-09-23T20:56:49.672Z,55.84
2022-09-23T20:59:18.310Z,55.88
2022-09-23T21:01:47.996Z,56.26
2022-09-23T21:04:16.356Z,56.04
2022-09-23T21:06:44.414Z,56.55
2022-09-23T21:09:12.516Z,57.87
2022-09-23T21:11:40.653Z,58.02
2022-09-23T21:14:11.145Z,56.56
2022-09-23T21:16:40.079Z,57.00
2022-09-23T21:19:08.624Z,56.22
2022-09-23T21:21:36.946Z,56.11
2022-09-23T21:24:33.646Z,56.01
2022-09-23T21:26:54.140Z,55.73
2022-09-23T21:29:23.896Z,55.63
2022-09-23T21:31:52.090Z,55.18
2022-09-23T21:34:20.055Z,55.58
2022-09-23T21:36:49.022Z,55.68
2022-09-23T21:39:17.272Z,55.63
2022-09-23T21:41:45.816Z,55.62
2022-09-23T21:44:14.286Z,56.24
2022-09-23T21:46:44.675Z,56.20
2022-09-23T21:49:13.307Z,56.10
2022-09-23T21:51:42.720Z,56.01
2022-09-23T21:54:14.728Z,56.21
2022-09-23T21:56:44.207Z,57.70
2022-09-23T21:59:13.559Z,57.14
2022-09-23T22:01:49.359Z,60.67
2022-09-23T22:04:22.701Z,57.80
2022-09-23T22:06:53.851Z,60.49
2022-09-23T22:09:22.871Z,57.97
2022-09-23T22:12:08.638Z,59.04
2022-09-23T22:14:39.118Z,59.15
2022-09-23T22:17:10.626Z,57.94
2022-09-23T22:19:45.975Z,58.36
2022-09-23T22:22:17.612Z,57.80
2022-09-23T22:24:47.673Z,58.05
2022-09-23T22:27:19.773Z,57.66
2022-09-23T22:30:05.780Z,57.84
2022-09-23T22:32:41.743Z,58.21
2022-09-23T22:35:11.535Z,58.13
2022-09-23T22:37:40.350Z,58.35
2022-09-23T22:40:11.125Z,58.20
2022-09-23T22:42:41.309Z,58.18
2022-09-23T22:45:12.956Z,57.81
2022-09-23T22:47:45.516Z,57.69
2022-09-23T22:50:15.166Z,57.96
2022-09-23T22:52:43.830Z,57.76
2022-09-23T22:55:12.485Z,57.65
2022-09-23T22:57:40.576Z,57.48
2022-09-23T23:00:12.147Z,57.83
2022-09-23T23:02:40.359Z,57.62
2022-09-23T23:05:10.209Z,57.52
2022-09-23T23:07:38.136Z,57.46
2022-09-23T23:10:10.120Z,57.68
2022-09-23T23:12:39.468Z,57.26
2022-09-23T23:15:09.310Z,57.49
2022-09-23T23:17:38.254Z,57.36
2022-09-23T23:20:09.461Z,57.20
2022-09-23T23:22:37.459Z,57.18
2022-09-23T23:25:06.161Z,56.52
2022-09-23T23:27:35.872Z,56.87
2022-09-23T23:30:04.630Z,56.35
2022-09-23T23:32:32.603Z,56.46
2022-09-23T23:35:00.697Z,55.94
2022-09-23T23:37:31.018Z,55.87
2022-09-23T23:39:58.936Z,55.72
2022-09-23T23:42:28.099Z,55.86
2022-09-23T23:44:56.145Z,55.84
2022-09-23T23:47:24.145Z,55.85
2022-09-23T23:49:52.270Z,56.96
2022-09-23T23:52:20.194Z,57.59
2022-09-23T23:54:49.583Z,59.68
2022-09-23T23:57:17.525Z,59.23
2022-09-23T23:59:45.465Z,58.77
